Terminal Aerodrome Forecast
Issued by NWS

Home | Current Version | Previous Version | Text Only | Print | Product List | Glossary On
Versions: 1 2 3 4 5 6 7 8 9 10 11 12 13 14 15 16 17
000
FTUS44 KLIX 011200 AAA
TAFMCB
TAF AMD
KMCB 011221Z 0112/0212 00000KT 2SM BR SCT002
      TEMPO 0112/0114 1/4SM FG VV002
     FM011400 00000KT P6SM BKN100
     FM011800 16006KT P6SM BKN050
     FM020100 16004KT P6SM BKN030=

USA.gov is the U.S. government's official web portal to all federal, state and local government web resources and services.